Time;durP1;ratioP1;P1;durP2;ratioP2;P2;SDS_P1;SDS_P2;PMS_P1;PMS_P2;Temp;Humidity;BMP_temperature;BMP_pressure;BME280_temperature;BME280_humidity;BME280_pressure;Samples;Min_cycle;Max_cycle;Signal;HPM_P1;HPM_P2
2022/12/18 00:01:52;;;;;;;70.43;19.40;;;;;;;-6.51;100.00;102876.06;4987308;28;20034;-76
2022/12/18 00:04:24;;;;;;;64.15;18.33;;;;;;;-6.54;100.00;102870.78;4986130;28;20047;-77
2022/12/18 00:06:49;;;;;;;67.53;20.13;;;;;;;-6.54;100.00;102875.81;4979360;28;20597;-76
2022/12/18 00:09:15;;;;;;;70.07;19.75;;;;;;;-6.52;100.00;102881.00;4988868;28;20521;-76
2022/12/18 00:11:40;;;;;;;74.55;20.35;;;;;;;-6.53;100.00;102879.22;4990580;28;20034;-77
2022/12/18 00:14:05;;;;;;;61.47;19.13;;;;;;;-6.57;100.00;102875.59;4982657;28;20036;-76
2022/12/18 00:16:32;;;;;;;60.13;20.08;;;;;;;-6.59;100.00;102879.63;4983404;28;20045;-76
2022/12/18 00:18:59;;;;;;;66.93;20.88;;;;;;;-6.62;100.00;102886.09;4988404;28;20038;-76
2022/12/18 00:21:24;;;;;;;63.20;20.63;;;;;;;-6.61;100.00;102880.25;4989784;28;20041;-76
2022/12/18 00:23:50;;;;;;;69.80;20.50;;;;;;;-6.64;100.00;102872.47;4989796;28;20022;-76
2022/12/18 00:26:21;;;;;;;62.88;19.80;;;;;;;-6.71;100.00;102866.06;4984718;28;20026;-76
2022/12/18 00:28:47;;;;;;;72.55;20.73;;;;;;;-6.75;100.00;102859.00;4968036;28;20038;-83
2022/12/18 00:31:15;;;;;;;64.10;19.42;;;;;;;-6.80;100.00;102863.72;4991347;28;20432;-83
2022/12/18 00:33:40;;;;;;;66.22;20.08;;;;;;;-6.81;100.00;102859.41;4980284;28;20034;-83
2022/12/18 00:36:10;;;;;;;69.38;19.67;;;;;;;-6.83;100.00;102868.53;4991315;28;20053;-84
2022/12/18 00:38:37;;;;;;;68.30;20.25;;;;;;;-6.86;100.00;102864.88;4984165;28;20045;-83
2022/12/18 00:41:03;;;;;;;71.32;19.73;;;;;;;-6.93;100.00;102858.47;4987216;28;20030;-83
2022/12/18 00:43:28;;;;;;;64.10;18.38;;;;;;;-6.95;100.00;102854.06;4988828;28;20022;-83
2022/12/18 00:45:53;;;;;;;68.22;20.50;;;;;;;-6.97;100.00;102860.63;4990737;28;20081;-83
2022/12/18 00:48:19;;;;;;;67.97;19.38;;;;;;;-7.00;100.00;102862.91;4983781;28;20528;-83
2022/12/18 00:50:44;;;;;;;61.90;19.25;;;;;;;-7.03;100.00;102866.06;4989965;28;20382;-83
2022/12/18 00:53:10;;;;;;;61.50;19.08;;;;;;;-7.06;100.00;102854.84;4972633;28;20027;-84
2022/12/18 00:55:38;;;;;;;67.78;20.33;;;;;;;-7.08;100.00;102862.28;4990190;28;20615;-83
2022/12/18 00:58:04;;;;;;;66.80;20.27;;;;;;;-7.11;100.00;102854.50;4970025;28;20077;-83
2022/12/18 01:00:29;;;;;;;64.75;20.35;;;;;;;-7.18;100.00;102855.66;4987151;28;20493;-83
2022/12/18 01:02:54;;;;;;;66.88;20.65;;;;;;;-7.23;100.00;102846.81;4984521;28;20497;-84
2022/12/18 01:05:20;;;;;;;59.38;18.88;;;;;;;-7.23;100.00;102858.53;4991574;28;20529;-83
2022/12/18 01:07:45;;;;;;;66.60;20.13;;;;;;;-7.24;100.00;102861.84;4980050;28;20186;-83
2022/12/18 01:10:12;;;;;;;68.13;20.73;;;;;;;-7.23;100.00;102866.09;4984311;28;20029;-83
2022/12/18 01:12:38;;;;;;;64.18;19.55;;;;;;;-7.26;100.00;102876.81;4975673;28;20105;-84
2022/12/18 01:15:05;;;;;;;61.35;19.25;;;;;;;-7.27;100.00;102884.25;4988466;28;20113;-83
2022/12/18 01:17:30;;;;;;;68.55;20.10;;;;;;;-7.28;100.00;102879.97;4990173;28;20030;-83
2022/12/18 01:19:56;;;;;;;66.38;19.08;;;;;;;-7.30;100.00;102877.31;4991098;28;20034;-84
2022/12/18 01:22:21;;;;;;;66.57;19.73;;;;;;;-7.32;100.00;102891.44;4977690;28;20027;-84
2022/12/18 01:24:46;;;;;;;66.03;20.17;;;;;;;-7.35;100.00;102886.16;4989069;28;20255;-83
2022/12/18 01:27:12;;;;;;;68.20;20.48;;;;;;;-7.35;100.00;102880.22;4972780;28;20403;-82
2022/12/18 01:29:37;;;;;;;67.28;19.67;;;;;;;-7.38;100.00;102882.53;4985392;28;20400;-84
2022/12/18 01:32:03;;;;;;;64.75;20.33;;;;;;;-7.40;100.00;102881.50;4986775;28;20057;-83
2022/12/18 01:34:28;;;;;;;67.05;20.25;;;;;;;-7.41;100.00;102879.75;4987064;28;20389;-83
2022/12/18 01:36:53;;;;;;;70.40;19.73;;;;;;;-7.45;100.00;102878.63;4981688;28;20050;-83
2022/12/18 01:39:19;;;;;;;63.85;19.52;;;;;;;-7.46;100.00;102874.34;4989658;28;20062;-84
2022/12/18 01:42:03;;;;;;;60.28;18.92;;;;;;;-7.48;100.00;102868.28;4972155;28;20069;-83
2022/12/18 01:44:54;;;;;;;64.20;20.00;;;;;;;-7.46;100.00;102860.88;4989346;28;20030;-83
2022/12/18 01:47:31;;;;;;;66.60;19.80;;;;;;;-7.47;100.00;102864.13;4973775;28;20081;-83
2022/12/18 01:49:59;;;;;;;59.03;19.10;;;;;;;-7.50;100.00;102859.72;4994143;28;20038;-84
2022/12/18 01:52:28;;;;;;;68.20;21.27;;;;;;;-7.52;100.00;102858.75;4978392;28;20058;-83
2022/12/18 01:54:54;;;;;;;62.47;18.85;;;;;;;-7.51;100.00;102857.09;4990515;28;20031;-83
2022/12/18 01:57:20;;;;;;;69.50;20.75;;;;;;;-7.52;100.00;102865.41;4977148;28;20547;-83
2022/12/18 01:59:49;;;;;;;66.40;20.13;;;;;;;-7.57;100.00;102857.47;4990108;28;20034;-76
2022/12/18 02:02:16;;;;;;;67.05;20.50;;;;;;;-7.60;100.00;102864.78;4991610;28;20436;-76
2022/12/18 02:04:42;;;;;;;64.82;20.33;;;;;;;-7.61;100.00;102863.00;4991189;28;20125;-76
2022/12/18 02:07:34;;;;;;;65.43;20.13;;;;;;;-7.61;100.00;102860.50;4992986;28;20133;-76
2022/12/18 02:10:02;;;;;;;68.88;20.13;;;;;;;-7.62;100.00;102867.16;4974436;28;20076;-76
2022/12/18 02:12:44;;;;;;;66.97;19.73;;;;;;;-7.61;100.00;102860.50;4990997;28;20022;-76
2022/12/18 02:15:23;;;;;;;62.85;18.75;;;;;;;-7.62;100.00;102861.25;4992469;28;20050;-76
2022/12/18 02:18:14;;;;;;;75.70;20.27;;;;;;;-7.63;100.00;102859.47;4978638;28;20057;-76
2022/12/18 02:20:47;;;;;;;80.15;20.42;;;;;;;-7.62;100.00;102857.09;4988294;28;20493;-75
2022/12/18 02:23:39;;;;;;;70.57;19.98;;;;;;;-7.63;100.00;102859.47;4992579;28;20022;-76
2022/12/18 02:26:14;;;;;;;69.35;20.00;;;;;;;-7.66;100.00;102855.09;4991159;28;20058;-76
2022/12/18 02:29:35;;;;;;;66.97;18.90;;;;;;;-7.67;100.00;102860.00;4974360;28;20034;-76
2022/12/18 02:32:05;;;;;;;63.05;17.33;;;;;;;-7.71;100.00;102858.00;4944721;28;20074;-76
2022/12/18 02:34:33;;;;;;;59.42;19.05;;;;;;;-7.75;100.00;102856.84;4985806;28;20023;-76
2022/12/18 02:37:04;;;;;;;62.83;18.40;;;;;;;-7.79;100.00;102859.88;4991688;28;20109;-76
2022/12/18 02:39:32;;;;;;;58.13;19.00;;;;;;;-7.80;100.00;102862.28;4989802;28;20105;-76
2022/12/18 02:41:58;;;;;;;59.00;19.15;;;;;;;-7.84;100.00;102860.25;4978233;28;20090;-76
2022/12/18 02:44:23;;;;;;;58.65;18.77;;;;;;;-7.88;100.00;102854.09;4972895;28;20029;-76
2022/12/18 02:46:52;;;;;;;59.03;18.88;;;;;;;-7.91;100.00;102845.41;4988867;28;20046;-76
2022/12/18 02:49:33;;;;;;;58.10;19.25;;;;;;;-7.90;100.00;102847.16;4990280;28;20022;-76
2022/12/18 02:52:17;;;;;;;63.22;18.33;;;;;;;-7.91;100.00;102842.91;4971449;28;20087;-75
2022/12/18 02:54:57;;;;;;;56.72;18.63;;;;;;;-7.93;100.00;102835.22;4985205;28;20646;-75
2022/12/18 02:57:34;;;;;;;54.90;17.15;;;;;;;-7.95;100.00;102834.22;4991641;28;20018;-75
2022/12/18 03:00:20;;;;;;;57.72;18.10;;;;;;;-7.99;100.00;102833.09;4989927;28;20034;-75
2022/12/18 03:03:01;;;;;;;52.13;17.80;;;;;;;-8.00;100.00;102828.81;4990186;28;20062;-75
2022/12/18 03:05:59;;;;;;;51.83;17.30;;;;;;;-8.03;100.00;102831.06;4977132;28;20502;-76
2022/12/18 03:08:28;;;;;;;53.67;18.75;;;;;;;-8.05;100.00;102836.72;4975659;28;20053;-76
2022/12/18 03:10:59;;;;;;;63.50;18.40;;;;;;;-8.09;100.00;102825.53;4986533;28;20038;-76
2022/12/18 03:13:49;;;;;;;52.40;18.08;;;;;;;-8.09;100.00;102834.69;4961406;28;20469;-76
2022/12/18 03:16:22;;;;;;;50.33;16.10;;;;;;;-8.13;100.00;102826.03;4986464;28;20389;-76
2022/12/18 03:18:47;;;;;;;56.83;17.60;;;;;;;-8.17;100.00;102813.94;4989668;28;20026;-76
2022/12/18 03:21:16;;;;;;;50.58;18.27;;;;;;;-8.20;100.00;102818.72;4990107;28;21680;-76
2022/12/18 03:23:47;;;;;;;50.05;17.63;;;;;;;-8.20;100.00;102825.41;4984999;28;20022;-75
2022/12/18 03:26:17;;;;;;;52.38;18.58;;;;;;;-8.20;100.00;102830.41;4979670;28;20401;-75
2022/12/18 03:28:49;;;;;;;49.58;16.55;;;;;;;-8.22;100.00;102829.41;4986627;28;20046;-76
2022/12/18 03:31:16;;;;;;;50.80;16.92;;;;;;;-8.21;100.00;102823.63;4991815;28;20018;-75
2022/12/18 03:33:54;;;;;;;52.28;17.05;;;;;;;-8.22;100.00;102821.84;4991489;28;20031;-75
2022/12/18 03:36:19;;;;;;;49.97;17.85;;;;;;;-8.25;100.00;102811.53;4990912;28;20069;-75
2022/12/18 03:38:45;;;;;;;46.42;17.35;;;;;;;-8.24;100.00;102821.72;4973303;28;20279;-83
2022/12/18 03:41:24;;;;;;;56.00;17.67;;;;;;;-8.25;100.00;102814.03;4991176;28;20093;-83
2022/12/18 03:43:58;;;;;;;44.55;15.82;;;;;;;-8.27;100.00;102808.91;4982963;28;20190;-83
2022/12/18 03:46:30;;;;;;;45.60;16.17;;;;;;;-8.29;100.00;102812.03;4991170;28;20089;-83
2022/12/18 03:49:11;;;;;;;44.55;16.58;;;;;;;-8.32;100.00;102811.84;4979861;28;20029;-83
2022/12/18 03:51:44;;;;;;;46.63;15.85;;;;;;;-8.32;100.00;102807.66;4965770;28;20018;-83
2022/12/18 03:54:11;;;;;;;48.20;16.60;;;;;;;-8.25;100.00;102804.88;4991256;28;20087;-83
2022/12/18 03:56:41;;;;;;;48.42;16.83;;;;;;;-8.22;100.00;102800.09;4987580;28;20041;-83
2022/12/18 03:59:09;;;;;;;44.17;16.30;;;;;;;-8.17;100.00;102800.47;4987512;28;20061;-83
2022/12/18 04:01:39;;;;;;;49.22;16.25;;;;;;;-8.14;100.00;102799.13;4991994;28;20080;-83
2022/12/18 04:04:06;;;;;;;43.00;16.60;;;;;;;-8.12;100.00;102789.19;4973782;28;20038;-83
2022/12/18 04:06:37;;;;;;;46.47;16.10;;;;;;;-8.13;100.00;102782.38;4990952;28;20509;-83
2022/12/18 04:09:03;;;;;;;47.80;16.65;;;;;;;-8.13;100.00;102785.78;4982651;28;20030;-83
2022/12/18 04:11:29;;;;;;;51.13;16.30;;;;;;;-8.17;100.00;102771.19;4991159;28;20022;-83
2022/12/18 04:13:58;;;;;;;43.63;16.35;;;;;;;-8.13;100.00;102774.84;4988776;28;20030;-83
2022/12/18 04:16:24;;;;;;;44.53;15.90;;;;;;;-8.13;100.00;102772.31;4986790;28;20033;-83
2022/12/18 04:18:50;;;;;;;48.33;16.42;;;;;;;-8.13;100.00;102772.31;4984176;28;20054;-83
2022/12/18 04:21:15;;;;;;;41.78;15.15;;;;;;;-8.09;100.00;102761.75;4978194;28;20054;-83
2022/12/18 04:23:41;;;;;;;40.42;14.65;;;;;;;-8.09;100.00;102762.63;4990580;28;20034;-83
2022/12/18 04:26:06;;;;;;;43.78;17.70;;;;;;;-8.06;100.00;102772.97;4990157;28;20038;-83
2022/12/18 04:28:31;;;;;;;44.92;16.17;;;;;;;-8.03;100.00;102759.72;4985999;28;20390;-83
2022/12/18 04:30:56;;;;;;;45.08;15.70;;;;;;;-7.99;100.00;102762.66;4991100;28;20031;-83
2022/12/18 04:33:22;;;;;;;39.55;14.82;;;;;;;-7.99;100.00;102755.09;4984746;28;20022;-83
2022/12/18 04:35:47;;;;;;;45.85;15.57;;;;;;;-8.00;100.00;102754.97;4980834;28;20105;-83
2022/12/18 04:38:12;;;;;;;46.17;15.38;;;;;;;-8.08;100.00;102759.38;4970939;28;20053;-83
2022/12/18 04:40:38;;;;;;;41.53;14.82;;;;;;;-8.05;100.00;102766.28;4985217;28;20473;-83
2022/12/18 04:43:04;;;;;;;42.53;14.85;;;;;;;-8.07;100.00;102771.19;4969951;28;20034;-83
2022/12/18 04:45:32;;;;;;;46.05;14.07;;;;;;;-8.06;100.00;102777.09;4960549;28;20029;-83
2022/12/18 04:47:59;;;;;;;44.30;14.57;;;;;;;-8.06;100.00;102782.13;4977776;28;20118;-83
2022/12/18 04:50:24;;;;;;;38.67;14.05;;;;;;;-8.08;100.00;102792.06;4981914;28;20034;-82
2022/12/18 04:52:50;;;;;;;39.72;14.38;;;;;;;-8.10;100.00;102787.66;4989655;28;20038;-83
2022/12/18 04:55:15;;;;;;;38.75;13.98;;;;;;;-8.11;100.00;102794.31;4990462;28;20105;-82
2022/12/18 04:57:40;;;;;;;41.83;14.20;;;;;;;-8.13;100.00;102787.41;4984052;28;20148;-82
2022/12/18 05:00:06;;;;;;;36.88;14.35;;;;;;;-8.13;100.00;102790.81;4989910;28;20089;-83
2022/12/18 05:02:32;;;;;;;38.20;14.43;;;;;;;-8.11;100.00;102793.44;4984558;28;20033;-83
2022/12/18 05:04:57;;;;;;;38.92;13.90;;;;;;;-8.14;100.00;102795.72;4971651;28;20038;-83
2022/12/18 05:07:22;;;;;;;39.92;13.98;;;;;;;-8.17;100.00;102811.41;4988953;28;20026;-82
2022/12/18 05:09:48;;;;;;;39.00;13.55;;;;;;;-8.20;100.00;102811.19;4966999;28;20062;-83
2022/12/18 05:12:13;;;;;;;36.53;13.68;;;;;;;-8.21;100.00;102823.63;4971510;28;20099;-83
2022/12/18 05:14:38;;;;;;;36.05;13.52;;;;;;;-8.24;100.00;102815.81;4983124;28;20091;-83
2022/12/18 05:17:04;;;;;;;39.85;14.50;;;;;;;-8.25;100.00;102817.44;4968039;28;20033;-82
2022/12/18 05:19:29;;;;;;;33.30;13.10;;;;;;;-8.23;100.00;102817.56;4989375;28;20105;-83
2022/12/18 05:21:54;;;;;;;32.30;12.82;;;;;;;-8.25;100.00;102816.56;4973666;28;20089;-83
2022/12/18 05:24:20;;;;;;;33.35;13.48;;;;;;;-8.30;100.00;102815.34;4993040;28;20377;-83
2022/12/18 05:26:45;;;;;;;38.92;13.82;;;;;;;-8.32;100.00;102812.69;4993549;28;20266;-83
2022/12/18 05:29:12;;;;;;;34.60;13.15;;;;;;;-8.36;100.00;102815.72;4990217;28;20031;-83
2022/12/18 05:31:38;;;;;;;34.22;12.52;;;;;;;-8.36;100.00;102805.66;4994187;28;20424;-83
2022/12/18 05:34:03;;;;;;;39.25;13.55;;;;;;;-8.38;100.00;102813.06;4993840;28;20500;-83
2022/12/18 05:36:29;;;;;;;35.72;13.95;;;;;;;-8.38;100.00;102797.97;4988748;28;20045;-83
2022/12/18 05:38:54;;;;;;;37.53;13.10;;;;;;;-8.39;100.00;102795.31;4991823;28;20030;-82
2022/12/18 05:41:19;;;;;;;38.55;13.82;;;;;;;-8.41;100.00;102799.38;4991886;28;20395;-83
2022/12/18 05:43:45;;;;;;;34.42;13.38;;;;;;;-8.41;100.00;102796.84;4993776;28;20057;-83
2022/12/18 05:46:17;;;;;;;37.25;13.70;;;;;;;-8.40;100.00;102788.56;4988801;28;20057;-83
2022/12/18 05:48:44;;;;;;;35.78;13.10;;;;;;;-8.41;100.00;102794.34;4971298;28;20041;-83
2022/12/18 05:51:15;;;;;;;38.20;13.73;;;;;;;-8.41;100.00;102789.31;4975061;28;20501;-83
2022/12/18 05:53:41;;;;;;;35.10;13.38;;;;;;;-8.40;100.00;102786.06;4986648;28;20073;-83
2022/12/18 05:56:09;;;;;;;38.90;13.23;;;;;;;-8.36;100.00;102784.66;4975772;28;20035;-83
2022/12/18 05:58:35;;;;;;;39.45;13.45;;;;;;;-8.34;100.00;102779.00;4981339;28;20493;-83
2022/12/18 06:01:13;;;;;;;38.90;13.82;;;;;;;-8.25;100.00;102776.31;4987734;28;20069;-82
2022/12/18 06:03:39;;;;;;;42.55;14.80;;;;;;;-8.20;100.00;102770.06;4978556;28;20073;-83
2022/12/18 06:06:13;;;;;;;31.70;12.80;;;;;;;-8.19;100.00;102764.28;4969128;28;20465;-82
2022/12/18 06:08:39;;;;;;;;;;;;;;;-8.14;100.00;102770.56;4989486;28;20076;-83
2022/12/18 06:11:04;;;;;;;37.35;12.50;;;;;;;-8.18;100.00;102771.94;4987290;28;19918;-82
2022/12/18 06:13:29;;;;;;;34.33;12.18;;;;;;;-8.21;100.00;102765.78;4992031;28;20380;-82
2022/12/18 06:15:55;;;;;;;38.65;12.90;;;;;;;-8.23;100.00;102762.25;4992282;28;20122;-83
2022/12/18 06:18:20;;;;;;;40.42;14.05;;;;;;;-8.23;100.00;102749.69;4975919;28;20113;-82
2022/12/18 06:20:54;;;;;;;40.33;13.48;;;;;;;-8.21;100.00;102754.09;4991330;28;20042;-82
2022/12/18 06:23:19;;;;;;;;;;;;;;;-8.18;100.00;102763.50;4977785;28;20026;-82
2022/12/18 06:25:45;;;;;;;32.80;12.20;;;;;;;-8.23;100.00;102755.59;4984412;28;20320;-82
2022/12/18 06:28:10;;;;;;;39.17;13.00;;;;;;;-8.22;100.00;102764.91;4992820;28;20298;-82
2022/12/18 06:30:36;;;;;;;35.53;13.68;;;;;;;-8.21;100.00;102771.69;4988239;28;20023;-82
2022/12/18 06:33:01;;;;;;;35.08;12.93;;;;;;;-8.22;100.00;102769.94;4992448;28;20521;-82
2022/12/18 06:35:26;;;;;;;39.47;14.05;;;;;;;-8.22;100.00;102779.09;4972269;28;20109;-82
2022/12/18 06:37:52;;;;;;;40.47;13.95;;;;;;;-8.24;100.00;102771.44;4972615;28;20038;-82
2022/12/18 06:40:17;;;;;;;39.67;14.68;;;;;;;-8.24;100.00;102766.41;4988731;28;20041;-82
2022/12/18 06:42:42;;;;;;;35.15;13.00;;;;;;;-8.23;100.00;102760.63;4979753;28;20340;-82
2022/12/18 06:45:08;;;;;;;36.92;13.65;;;;;;;-8.23;100.00;102770.69;4991974;28;20026;-83
2022/12/18 06:47:33;;;;;;;39.10;13.70;;;;;;;-8.23;100.00;102758.09;4987866;28;20057;-83
2022/12/18 06:49:59;;;;;;;38.65;14.13;;;;;;;-8.26;100.00;102757.88;4984277;28;20047;-84
2022/12/18 06:52:24;;;;;;;36.17;13.88;;;;;;;-8.24;100.00;102756.34;4985766;28;20073;-83
2022/12/18 06:54:50;;;;;;;38.05;13.68;;;;;;;-8.25;100.00;102756.22;4989715;28;20031;-81
2022/12/18 06:57:15;;;;;;;38.00;14.05;;;;;;;-8.27;100.00;102748.56;4991916;28;20081;-81
2022/12/18 06:59:40;;;;;;;36.20;14.38;;;;;;;-8.27;100.00;102753.59;4985094;28;20116;-82
2022/12/18 07:02:05;;;;;;;36.60;14.40;;;;;;;-8.31;100.00;102753.22;4990759;28;20030;-81
2022/12/18 07:04:31;;;;;;;36.88;13.23;;;;;;;-8.33;100.00;102745.56;4974783;28;20042;-82
2022/12/18 07:06:57;;;;;;;33.15;12.80;;;;;;;-8.36;100.00;102742.78;4988480;28;20156;-82
2022/12/18 07:09:23;;;;;;;37.40;14.18;;;;;;;-8.36;100.00;102739.41;4989256;28;20121;-82
2022/12/18 07:11:48;;;;;;;41.03;16.50;;;;;;;-8.37;100.00;102746.06;4987849;28;20027;-82
2022/12/18 07:14:14;;;;;;;40.45;15.77;;;;;;;-8.39;100.00;102733.34;4982599;28;20076;-83
2022/12/18 07:16:40;;;;;;;39.45;16.00;;;;;;;-8.35;100.00;102731.09;4990465;28;20430;-82
2022/12/18 07:19:05;;;;;;;41.13;15.45;;;;;;;-8.35;100.00;102724.44;4986293;28;20396;-76
2022/12/18 07:21:31;;;;;;;39.00;15.13;;;;;;;-8.31;100.00;102723.06;4982798;28;20481;-76
2022/12/18 07:23:56;;;;;;;40.30;15.07;;;;;;;-8.33;100.00;102717.91;4968251;28;20050;-76
2022/12/18 07:26:22;;;;;;;41.28;14.75;;;;;;;-8.35;100.00;102716.91;4989297;28;20397;-76
2022/12/18 07:28:48;;;;;;;36.80;14.13;;;;;;;-8.33;100.00;102719.56;4982427;28;20180;-76
2022/12/18 07:31:19;;;;;;;34.80;14.02;;;;;;;-8.30;100.00;102718.13;4988083;28;20034;-76
2022/12/18 07:33:45;;;;;;;46.67;14.32;;;;;;;-8.29;100.00;102707.31;4986480;28;20038;-76
2022/12/18 07:36:10;;;;;;;41.13;14.82;;;;;;;-8.27;100.00;102708.31;4980190;28;20022;-76
2022/12/18 07:38:36;;;;;;;41.50;14.50;;;;;;;-8.24;100.00;102701.00;4969288;28;20026;-76
2022/12/18 07:41:07;;;;;;;39.33;14.68;;;;;;;-8.19;100.00;102689.72;4980127;28;20282;-76
2022/12/18 07:43:33;;;;;;;44.20;15.32;;;;;;;-8.13;100.00;102691.84;4961612;28;20037;-76
2022/12/18 07:45:59;;;;;;;43.45;14.60;;;;;;;-8.10;100.00;102694.59;4979813;28;20035;-76
2022/12/18 07:48:24;;;;;;;39.53;14.07;;;;;;;-8.05;100.00;102688.31;4987020;28;20037;-82
2022/12/18 07:50:50;;;;;;;45.85;14.63;;;;;;;-8.00;100.00;102680.38;4989086;28;20041;-82
2022/12/18 07:53:15;;;;;;;41.83;14.82;;;;;;;-7.98;100.00;102676.31;4980219;28;20061;-82
2022/12/18 07:55:41;;;;;;;43.60;16.35;;;;;;;-7.89;100.00;102667.75;4964211;28;20022;-82
2022/12/18 07:58:07;;;;;;;41.17;14.27;;;;;;;-7.79;100.00;102651.00;4979071;28;20150;-82
2022/12/18 08:00:32;;;;;;;48.72;14.52;;;;;;;-7.70;100.00;102654.22;4988937;28;20033;-82
2022/12/18 08:02:57;;;;;;;40.80;15.07;;;;;;;-7.65;100.00;102637.00;4981402;28;20512;-82
2022/12/18 08:05:23;;;;;;;40.10;14.65;;;;;;;-7.51;100.00;102655.69;4976887;28;20049;-82
2022/12/18 08:07:48;;;;;;;40.97;14.93;;;;;;;-7.40;100.00;102644.78;4978434;28;20441;-82
2022/12/18 08:10:14;;;;;;;46.00;16.98;;;;;;;-7.32;100.00;102653.81;4979757;28;20037;-82
2022/12/18 08:12:39;;;;;;;44.20;15.68;;;;;;;-7.23;100.00;102659.53;4969181;28;20108;-82
2022/12/18 08:15:05;;;;;;;45.50;16.30;;;;;;;-7.15;100.00;102652.56;4991160;28;20089;-82
2022/12/18 08:17:30;;;;;;;46.58;16.67;;;;;;;-7.05;100.00;102658.44;4991554;28;20034;-82
2022/12/18 08:19:56;;;;;;;48.08;17.10;;;;;;;-6.98;100.00;102660.66;4990834;28;20024;-82
2022/12/18 08:22:21;;;;;;;49.92;16.80;;;;;;;-6.89;100.00;102670.56;4973207;28;20026;-82
2022/12/18 08:24:46;;;;;;;42.25;16.20;;;;;;;-6.82;100.00;102672.75;4991102;28;20544;-83
2022/12/18 08:27:12;;;;;;;45.10;15.32;;;;;;;-6.72;100.00;102677.75;4990898;28;20062;-83
2022/12/18 08:29:38;;;;;;;45.63;16.85;;;;;;;-6.65;100.00;102669.00;4990878;28;20598;-83
2022/12/18 08:32:03;;;;;;;41.67;16.67;;;;;;;-6.59;100.00;102670.34;4972977;28;20029;-83
2022/12/18 08:34:29;;;;;;;45.55;15.73;;;;;;;-6.56;100.00;102668.06;4977636;28;20446;-82
2022/12/18 08:36:54;;;;;;;44.42;15.60;;;;;;;-6.53;100.00;102663.22;4991519;28;20106;-83
2022/12/18 08:39:19;;;;;;;46.22;16.35;;;;;;;-6.48;100.00;102664.44;4990303;28;20026;-83
2022/12/18 08:44:37;;;;;;;42.63;14.40;;;;;;;-6.45;100.00;102659.63;4991214;28;20097;-82
2022/12/18 08:44:39;;;;;;;43.83;15.50;;;;;;;-6.40;100.00;102665.88;4990275;28;20038;-83
2022/12/18 08:47:06;;;;;;;39.58;15.05;;;;;;;-6.34;100.00;102657.00;4993528;28;20054;-82
2022/12/18 08:49:31;;;;;;;41.78;15.75;;;;;;;-6.29;100.00;102654.06;4990469;28;20029;-83
2022/12/18 08:51:57;;;;;;;45.00;16.63;;;;;;;-6.24;100.00;102642.66;4990947;28;20031;-83
2022/12/18 08:54:23;;;;;;;42.00;15.82;;;;;;;-6.21;100.00;102630.25;4989915;28;20497;-82
2022/12/18 08:56:49;;;;;;;41.20;15.50;;;;;;;-6.14;100.00;102641.69;4984387;28;20042;-82
2022/12/18 08:59:15;;;;;;;45.03;16.00;;;;;;;-6.04;100.00;102634.00;4986639;28;20515;-82
2022/12/18 09:01:40;;;;;;;46.10;16.20;;;;;;;-5.95;100.00;102636.31;4990908;28;20030;-82
2022/12/18 09:04:07;;;;;;;43.25;14.73;;;;;;;-5.85;100.00;102634.50;4989848;28;20130;-82
2022/12/18 09:06:32;;;;;;;37.65;15.52;;;;;;;-5.76;100.00;102632.66;4990546;28;20407;-82
2022/12/18 09:08:58;;;;;;;45.75;17.25;;;;;;;-5.65;100.00;102634.25;4990043;28;20481;-82
2022/12/18 09:11:25;;;;;;;45.33;16.83;;;;;;;-5.55;100.00;102645.03;4990185;28;20499;-83
2022/12/18 09:13:52;;;;;;;50.20;16.90;;;;;;;-5.46;100.00;102646.56;4989938;28;20041;-82
2022/12/18 09:16:18;;;;;;;45.35;17.52;;;;;;;-5.38;100.00;102644.53;4990674;28;20037;-82
2022/12/18 09:18:43;;;;;;;43.58;16.55;;;;;;;-5.31;100.00;102637.47;4990965;28;20029;-82
2022/12/18 09:21:14;;;;;;;44.45;16.83;;;;;;;-5.24;100.00;102637.13;4988308;28;20113;-82
2022/12/18 09:23:40;;;;;;;44.28;16.25;;;;;;;-5.14;100.00;102647.88;4989262;28;20034;-82
2022/12/18 09:26:05;;;;;;;47.70;16.27;;;;;;;-5.06;100.00;102652.69;4987250;28;20102;-82
2022/12/18 09:28:30;;;;;;;44.67;16.50;;;;;;;-4.99;100.00;102662.47;4966391;28;20030;-77
2022/12/18 09:30:56;;;;;;;50.38;17.52;;;;;;;-4.91;100.00;102662.94;4986070;28;20552;-78
2022/12/18 09:33:21;;;;;;;46.58;17.33;;;;;;;-4.87;100.00;102660.75;4989548;28;20080;-78
2022/12/18 09:35:46;;;;;;;44.65;17.58;;;;;;;-4.81;100.00;102656.09;4990381;28;20023;-78
2022/12/18 09:38:15;;;;;;;42.78;17.35;;;;;;;-4.73;100.00;102649.03;4990515;28;20033;-78
2022/12/18 09:41:33;;;;;;;47.22;17.33;;;;;;;-4.65;100.00;102637.78;4988938;28;20026;-78
2022/12/18 09:44:34;;;;;;;45.20;16.45;;;;;;;-4.57;100.00;102625.63;4931947;28;20126;-78
2022/12/18 09:47:35;;;;;;;44.85;16.15;;;;;;;-4.51;100.00;102619.31;4971238;28;20034;-78
2022/12/18 09:50:29;;;;;;;41.60;16.27;;;;;;;-4.41;100.00;102618.25;4977023;28;20126;-78
2022/12/18 09:52:59;;;;;;;50.45;17.67;;;;;;;-4.33;100.00;102617.09;4972577;28;20038;-78
2022/12/18 09:55:35;;;;;;;46.97;16.88;;;;;;;-4.25;100.00;102610.00;4990014;28;20117;-78
2022/12/18 09:58:07;;;;;;;45.83;17.70;;;;;;;-4.16;100.00;102603.84;4988907;28;20110;-78
2022/12/18 10:00:32;;;;;;;48.35;18.13;;;;;;;-4.07;100.00;102596.88;4972256;28;20038;-81
2022/12/18 10:03:09;;;;;;;43.45;17.55;;;;;;;-3.97;100.00;102594.91;4986950;28;20030;-81
2022/12/18 10:06:10;;;;;;;47.15;18.08;;;;;;;-3.85;100.00;102601.63;4990295;28;20505;-81
2022/12/18 10:08:55;;;;;;;45.22;17.92;;;;;;;-3.74;100.00;102603.16;4976600;28;20099;-80
2022/12/18 10:11:50;;;;;;;47.30;17.98;;;;;;;-3.66;100.00;102604.50;4993274;28;20030;-80
2022/12/18 10:14:33;;;;;;;45.60;17.85;;;;;;;-3.55;100.00;102601.78;4987084;28;20512;-81
2022/12/18 10:17:37;;;;;;;45.47;18.30;;;;;;;-3.44;100.00;102608.38;4978687;28;20396;-81
2022/12/18 10:20:15;;;;;;;41.42;16.67;;;;;;;-3.38;100.00;102604.56;4923840;28;20042;-80
2022/12/18 10:22:47;;;;;;;46.45;18.27;;;;;;;-3.34;100.00;102601.41;4993189;28;20034;-80
2022/12/18 10:25:21;;;;;;;45.95;17.38;;;;;;;-3.26;100.00;102606.94;4976466;28;20089;-80
2022/12/18 10:27:48;;;;;;;45.00;17.45;;;;;;;-3.22;100.00;102592.03;4993781;28;20030;-80
2022/12/18 10:30:16;;;;;;;44.30;17.92;;;;;;;-3.12;100.00;102598.50;4992250;28;20038;-80
2022/12/18 10:32:41;;;;;;;47.47;19.55;;;;;;;-3.04;100.00;102592.25;4969560;28;20062;-80
2022/12/18 10:35:26;;;;;;;49.55;19.70;;;;;;;-2.96;100.00;102577.47;4975038;28;20446;-80
2022/12/18 10:38:10;;;;;;;;;;;;;;;-2.90;100.00;102581.25;4990865;28;20057;-80
2022/12/18 10:40:58;;;;;;;39.70;16.55;;;;;;;-2.86;100.00;102577.22;4983753;28;19918;-80
2022/12/18 10:43:32;;;;;;;45.05;17.10;;;;;;;-2.83;100.00;102564.72;4993171;28;20069;-80
2022/12/18 10:46:06;;;;;;;46.10;17.55;;;;;;;-2.78;100.00;102556.56;4993650;28;20084;-80
2022/12/18 10:48:35;;;;;;;45.17;17.35;;;;;;;-2.70;100.00;102551.06;4983392;28;20451;-80
2022/12/18 10:51:03;;;;;;;40.60;16.27;;;;;;;-2.64;100.00;102548.88;4987602;28;20031;-80
2022/12/18 10:53:30;;;;;;;44.97;17.10;;;;;;;-2.60;100.00;102554.25;4993051;28;20125;-80
2022/12/18 10:56:01;;;;;;;42.42;16.60;;;;;;;-2.54;100.00;102546.97;4993130;28;20033;-80
2022/12/18 10:58:32;;;;;;;43.58;17.05;;;;;;;-2.49;100.00;102532.88;4984929;28;20516;-81
2022/12/18 11:01:03;;;;;;;38.28;16.60;;;;;;;-2.42;100.00;102529.00;4987374;28;20030;-80
2022/12/18 11:03:41;;;;;;;43.08;16.55;;;;;;;-2.35;100.00;102520.06;4988150;28;20121;-80
2022/12/18 11:06:06;;;;;;;41.58;16.80;;;;;;;-2.30;100.00;102516.09;4992842;28;20038;-80
2022/12/18 11:08:32;;;;;;;41.13;16.00;;;;;;;-2.28;100.00;102512.88;4992156;28;20053;-80
2022/12/18 11:10:57;;;;;;;39.80;15.98;;;;;;;-2.25;100.00;102522.34;4984318;28;20022;-80
2022/12/18 11:13:26;;;;;;;39.67;16.10;;;;;;;-2.24;100.00;102514.78;4988349;28;20041;-80